Weather Data

Pearl Creek Farm: 8878 N Farm Road 75, Walnut Grove MO 65770

<== Previous Day (Tuesday 11 Apr 2017) | Next Day (Thursday 13 Apr 2017) ==>

Summary Precipitation Data For Wednesday 12 April 2017

ElementValueUnits
Precipitation0"
Notes(none)
SourcePearl Creek Farm

Summary Temperature Data For Wednesday 12 April 2017

ElementValueUnits
High Temperature75 oF
Low Temperature46 oF
Average Temperature63 oF
High Humidity75 %
Low Humidity39 %
Average Humidity57 %
SourceSpringfield-Branson National Airport (SGF)

Detail Temperature Data For Wednesday 12 April 2017

Date / TimeTemp (F)RH (%)Dew Pt (F)Report Date / TimeSource
2017-04-12 00:52:00 49 69 39.0 2017-12-29 17:00:26.17417 Springfield-Branson National Airport (SGF)
2017-04-12 01:52:00 50 66 39.0 2017-12-29 17:00:26.17417 Springfield-Branson National Airport (SGF)
2017-04-12 02:52:00 48 68 38.0 2017-12-29 17:00:26.17417 Springfield-Branson National Airport (SGF)
2017-04-12 03:52:00 46 73 38.0 2017-12-29 17:00:26.17417 Springfield-Branson National Airport (SGF)
2017-04-12 04:52:00 47 74 39.0 2017-12-29 17:00:26.17417 Springfield-Branson National Airport (SGF)
2017-04-12 05:52:00 48 74 40.0 2017-12-29 17:00:26.17417 Springfield-Branson National Airport (SGF)
2017-04-12 06:52:00 52 75 44.0 2017-12-29 17:00:26.17417 Springfield-Branson National Airport (SGF)
2017-04-12 07:52:00 58 70 48.0 2017-12-29 17:00:26.17417 Springfield-Branson National Airport (SGF)
2017-04-12 08:52:00 62 60 48.0 2017-12-29 17:00:26.17417 Springfield-Branson National Airport (SGF)
2017-04-12 09:52:00 66 54 49.0 2017-12-29 17:00:26.17417 Springfield-Branson National Airport (SGF)
2017-04-12 10:52:00 68 51 49.0 2017-12-29 17:00:26.17417 Springfield-Branson National Airport (SGF)
2017-04-12 11:52:00 70 49 50.0 2017-12-29 17:00:26.17417 Springfield-Branson National Airport (SGF)
2017-04-12 12:52:00 72 50 52.0 2017-12-29 17:00:26.17417 Springfield-Branson National Airport (SGF)
2017-04-12 13:52:00 73 46 51.0 2017-12-29 17:00:26.17417 Springfield-Branson National Airport (SGF)
2017-04-12 14:52:00 75 40 49.0 2017-12-29 17:00:26.17417 Springfield-Branson National Airport (SGF)
2017-04-12 15:52:00 75 40 49.0 2017-12-29 17:00:26.17417 Springfield-Branson National Airport (SGF)
2017-04-12 16:52:00 75 39 48.0 2017-12-29 17:00:26.17417 Springfield-Branson National Airport (SGF)
2017-04-12 17:52:00 73 43 49.0 2017-12-29 17:00:26.17417 Springfield-Branson National Airport (SGF)
2017-04-12 18:52:00 67 51 48.0 2017-12-29 17:00:26.17417 Springfield-Branson National Airport (SGF)
2017-04-12 19:52:00 66 52 48.0 2017-12-29 17:00:26.17417 Springfield-Branson National Airport (SGF)
2017-04-12 20:52:00 66 50 47.0 2017-12-29 17:00:26.17417 Springfield-Branson National Airport (SGF)
2017-04-12 21:52:00 66 50 47.0 2017-12-29 17:00:26.17417 Springfield-Branson National Airport (SGF)
2017-04-12 22:52:00 65 54 48.0 2017-12-29 17:00:26.17417 Springfield-Branson National Airport (SGF)
2017-04-12 23:52:00 64 60 50.0 2017-12-29 17:00:26.17417 Springfield-Branson National Airport (SGF)

A total of 24 rows are displayed.